sensor_id;sensor_type;location;lat;lon;timestamp;pressure;altitude;pressure_sealevel;temperature;humidity
73453;BME280;61687;56.232;43.854;2023-12-28T00:01:35;99427.63;;;-4.22;74.89
73453;BME280;61687;56.232;43.854;2023-12-28T00:04:01;99432.88;;;-4.17;74.89
73453;BME280;61687;56.232;43.854;2023-12-28T00:06:27;99450.66;;;-4.07;74.39
73453;BME280;61687;56.232;43.854;2023-12-28T00:08:53;99442.59;;;-4.21;74.61
73453;BME280;61687;56.232;43.854;2023-12-28T00:11:18;99444.44;;;-4.21;74.60
73453;BME280;61687;56.232;43.854;2023-12-28T00:13:46;99447.63;;;-4.38;75.15
73453;BME280;61687;56.232;43.854;2023-12-28T00:16:12;99445.38;;;-4.31;75.09
73453;BME280;61687;56.232;43.854;2023-12-28T00:18:38;99453.25;;;-4.40;75.13
73453;BME280;61687;56.232;43.854;2023-12-28T00:21:04;99447.75;;;-4.49;75.56
73453;BME280;61687;56.232;43.854;2023-12-28T00:23:30;99444.22;;;-4.63;75.92
73453;BME280;61687;56.232;43.854;2023-12-28T00:25:56;99455.56;;;-4.52;75.88
73453;BME280;61687;56.232;43.854;2023-12-28T00:28:22;99453.19;;;-4.54;75.82
73453;BME280;61687;56.232;43.854;2023-12-28T00:30:48;99458.69;;;-4.45;75.51
73453;BME280;61687;56.232;43.854;2023-12-28T00:33:14;99455.06;;;-4.35;75.33
73453;BME280;61687;56.232;43.854;2023-12-28T00:35:41;99455.59;;;-4.33;75.15
73453;BME280;61687;56.232;43.854;2023-12-28T00:38:07;99458.75;;;-4.31;75.29
73453;BME280;61687;56.232;43.854;2023-12-28T00:40:34;99455.97;;;-4.21;75.14
73453;BME280;61687;56.232;43.854;2023-12-28T00:43:00;99458.91;;;-4.22;74.91
73453;BME280;61687;56.232;43.854;2023-12-28T00:45:26;99456.16;;;-4.36;75.21
73453;BME280;61687;56.232;43.854;2023-12-28T00:47:52;99454.22;;;-4.31;75.17
73453;BME280;61687;56.232;43.854;2023-12-28T00:50:21;99459.25;;;-4.29;75.00
73453;BME280;61687;56.232;43.854;2023-12-28T00:52:47;99452.13;;;-4.34;75.30
73453;BME280;61687;56.232;43.854;2023-12-28T00:55:13;99456.66;;;-4.34;75.32
73453;BME280;61687;56.232;43.854;2023-12-28T00:57:39;99454.13;;;-4.25;75.01
73453;BME280;61687;56.232;43.854;2023-12-28T01:00:07;99459.88;;;-4.13;74.39
73453;BME280;61687;56.232;43.854;2023-12-28T01:02:33;99459.50;;;-4.25;74.71
73453;BME280;61687;56.232;43.854;2023-12-28T01:05:00;99464.78;;;-4.39;75.15
73453;BME280;61687;56.232;43.854;2023-12-28T01:07:26;99469.75;;;-4.33;75.28
73453;BME280;61687;56.232;43.854;2023-12-28T01:09:53;99475.66;;;-4.36;75.31
73453;BME280;61687;56.232;43.854;2023-12-28T01:12:19;99480.91;;;-4.25;74.93
73453;BME280;61687;56.232;43.854;2023-12-28T01:14:45;99479.97;;;-4.15;74.66
73453;BME280;61687;56.232;43.854;2023-12-28T01:17:11;99480.75;;;-4.15;74.56
73453;BME280;61687;56.232;43.854;2023-12-28T01:19:37;99481.69;;;-4.06;74.21
73453;BME280;61687;56.232;43.854;2023-12-28T01:22:04;99485.72;;;-4.08;74.11
73453;BME280;61687;56.232;43.854;2023-12-28T01:24:31;99481.97;;;-4.07;73.91
73453;BME280;61687;56.232;43.854;2023-12-28T01:26:57;99485.88;;;-4.19;74.16
73453;BME280;61687;56.232;43.854;2023-12-28T01:29:23;99486.59;;;-4.51;74.69
73453;BME280;61687;56.232;43.854;2023-12-28T01:31:49;99488.50;;;-4.33;74.75
73453;BME280;61687;56.232;43.854;2023-12-28T01:34:15;99481.97;;;-4.26;74.75
73453;BME280;61687;56.232;43.854;2023-12-28T01:36:41;99497.38;;;-4.18;74.35
73453;BME280;61687;56.232;43.854;2023-12-28T01:39:10;99498.03;;;-4.07;74.11
73453;BME280;61687;56.232;43.854;2023-12-28T01:41:36;99504.63;;;-3.99;73.96
73453;BME280;61687;56.232;43.854;2023-12-28T01:44:03;99506.56;;;-4.24;74.10
73453;BME280;61687;56.232;43.854;2023-12-28T01:46:29;99503.00;;;-4.39;74.54
73453;BME280;61687;56.232;43.854;2023-12-28T01:48:55;99505.31;;;-4.51;75.02
73453;BME280;61687;56.232;43.854;2023-12-28T01:51:22;99524.06;;;-4.56;75.25
73453;BME280;61687;56.232;43.854;2023-12-28T01:53:52;99510.19;;;-4.58;75.25
73453;BME280;61687;56.232;43.854;2023-12-28T01:56:19;99525.38;;;-4.54;75.12
73453;BME280;61687;56.232;43.854;2023-12-28T01:58:46;99524.59;;;-4.54;75.12
73453;BME280;61687;56.232;43.854;2023-12-28T02:01:14;99516.75;;;-4.46;75.15
73453;BME280;61687;56.232;43.854;2023-12-28T02:03:40;99528.44;;;-4.41;74.80
73453;BME280;61687;56.232;43.854;2023-12-28T02:06:07;99520.63;;;-4.38;74.83
73453;BME280;61687;56.232;43.854;2023-12-28T02:08:33;99527.22;;;-4.30;74.62
73453;BME280;61687;56.232;43.854;2023-12-28T02:11:00;99528.41;;;-4.17;74.17
73453;BME280;61687;56.232;43.854;2023-12-28T02:13:27;99530.88;;;-4.21;74.18
73453;BME280;61687;56.232;43.854;2023-12-28T02:16:08;99537.16;;;-4.31;74.30
73453;BME280;61687;56.232;43.854;2023-12-28T02:18:49;99542.94;;;-4.23;74.43
73453;BME280;61687;56.232;43.854;2023-12-28T02:21:17;99544.00;;;-4.24;74.20
73453;BME280;61687;56.232;43.854;2023-12-28T02:23:50;99554.31;;;-4.37;74.43
73453;BME280;61687;56.232;43.854;2023-12-28T02:26:16;99550.00;;;-4.33;74.68
73453;BME280;61687;56.232;43.854;2023-12-28T02:28:44;99554.13;;;-4.21;74.01
73453;BME280;61687;56.232;43.854;2023-12-28T02:31:23;99549.63;;;-4.26;73.98
73453;BME280;61687;56.232;43.854;2023-12-28T02:33:58;99549.09;;;-4.23;74.03
73453;BME280;61687;56.232;43.854;2023-12-28T02:36:26;99555.72;;;-4.20;74.24
73453;BME280;61687;56.232;43.854;2023-12-28T02:38:55;99563.19;;;-4.17;74.15
73453;BME280;61687;56.232;43.854;2023-12-28T02:41:25;99568.09;;;-4.24;74.22
73453;BME280;61687;56.232;43.854;2023-12-28T02:43:51;99568.66;;;-4.27;74.56
73453;BME280;61687;56.232;43.854;2023-12-28T02:46:18;99569.28;;;-4.11;74.33
73453;BME280;61687;56.232;43.854;2023-12-28T02:48:44;99579.69;;;-4.10;74.12
73453;BME280;61687;56.232;43.854;2023-12-28T02:51:10;99580.97;;;-4.26;74.58
73453;BME280;61687;56.232;43.854;2023-12-28T02:53:36;99583.06;;;-4.23;74.55
73453;BME280;61687;56.232;43.854;2023-12-28T02:56:02;99583.22;;;-4.39;75.08
73453;BME280;61687;56.232;43.854;2023-12-28T02:58:28;99586.75;;;-4.19;74.83
73453;BME280;61687;56.232;43.854;2023-12-28T03:00:54;99584.00;;;-4.14;74.64
73453;BME280;61687;56.232;43.854;2023-12-28T03:03:21;99589.59;;;-4.10;74.20
73453;BME280;61687;56.232;43.854;2023-12-28T03:05:47;99579.69;;;-4.10;74.45
73453;BME280;61687;56.232;43.854;2023-12-28T03:08:13;99584.31;;;-4.15;74.48
73453;BME280;61687;56.232;43.854;2023-12-28T03:10:39;99583.22;;;-4.14;74.46
73453;BME280;61687;56.232;43.854;2023-12-28T03:13:05;99583.09;;;-4.04;74.23
73453;BME280;61687;56.232;43.854;2023-12-28T03:15:31;99588.66;;;-4.00;74.29
73453;BME280;61687;56.232;43.854;2023-12-28T03:17:57;99589.09;;;-4.12;74.53
73453;BME280;61687;56.232;43.854;2023-12-28T03:20:23;99585.25;;;-4.06;74.16
73453;BME280;61687;56.232;43.854;2023-12-28T03:22:49;99594.16;;;-4.11;74.27
73453;BME280;61687;56.232;43.854;2023-12-28T03:25:15;99592.22;;;-4.29;74.95
73453;BME280;61687;56.232;43.854;2023-12-28T03:27:40;99592.59;;;-4.17;74.81
73453;BME280;61687;56.232;43.854;2023-12-28T03:30:07;99586.06;;;-4.06;74.56
73453;BME280;61687;56.232;43.854;2023-12-28T03:32:33;99591.75;;;-4.12;74.66
73453;BME280;61687;56.232;43.854;2023-12-28T03:34:59;99590.50;;;-4.20;74.81
73453;BME280;61687;56.232;43.854;2023-12-28T03:37:26;99586.38;;;-4.32;75.23
73453;BME280;61687;56.232;43.854;2023-12-28T03:39:52;99588.13;;;-4.22;75.06
73453;BME280;61687;56.232;43.854;2023-12-28T03:42:18;99581.56;;;-4.10;74.94
73453;BME280;61687;56.232;43.854;2023-12-28T03:44:44;99593.00;;;-4.05;74.73
73453;BME280;61687;56.232;43.854;2023-12-28T03:47:09;99595.03;;;-3.96;74.47
73453;BME280;61687;56.232;43.854;2023-12-28T03:49:35;99595.19;;;-3.88;74.25
73453;BME280;61687;56.232;43.854;2023-12-28T03:52:01;99612.25;;;-4.03;74.37
73453;BME280;61687;56.232;43.854;2023-12-28T03:54:28;99606.53;;;-3.96;74.18
73453;BME280;61687;56.232;43.854;2023-12-28T03:56:54;99612.38;;;-4.13;74.76
73453;BME280;61687;56.232;43.854;2023-12-28T03:59:20;99614.91;;;-4.03;74.65
73453;BME280;61687;56.232;43.854;2023-12-28T04:01:47;99616.59;;;-4.07;74.78
73453;BME280;61687;56.232;43.854;2023-12-28T04:04:12;99619.44;;;-3.98;74.36
73453;BME280;61687;56.232;43.854;2023-12-28T04:06:38;99618.47;;;-4.32;75.20
73453;BME280;61687;56.232;43.854;2023-12-28T04:09:04;99626.94;;;-4.24;75.30
73453;BME280;61687;56.232;43.854;2023-12-28T04:11:30;99621.59;;;-4.24;75.56
73453;BME280;61687;56.232;43.854;2023-12-28T04:13:57;99626.47;;;-4.07;75.07
73453;BME280;61687;56.232;43.854;2023-12-28T04:16:23;99632.63;;;-4.07;74.70
73453;BME280;61687;56.232;43.854;2023-12-28T04:18:49;99631.91;;;-4.12;75.06
73453;BME280;61687;56.232;43.854;2023-12-28T04:21:16;99641.81;;;-4.13;75.11
73453;BME280;61687;56.232;43.854;2023-12-28T04:23:42;99640.50;;;-4.15;75.04
73453;BME280;61687;56.232;43.854;2023-12-28T04:26:08;99639.06;;;-4.32;75.68
73453;BME280;61687;56.232;43.854;2023-12-28T04:28:35;99645.75;;;-4.29;75.85
73453;BME280;61687;56.232;43.854;2023-12-28T04:31:05;99646.84;;;-4.36;75.91
73453;BME280;61687;56.232;43.854;2023-12-28T04:33:32;99654.72;;;-4.20;75.54
73453;BME280;61687;56.232;43.854;2023-12-28T04:36:03;99655.22;;;-4.18;75.57
73453;BME280;61687;56.232;43.854;2023-12-28T04:38:32;99655.63;;;-4.30;75.88
73453;BME280;61687;56.232;43.854;2023-12-28T04:41:00;99654.78;;;-4.25;75.66
73453;BME280;61687;56.232;43.854;2023-12-28T04:43:27;99650.22;;;-4.25;75.71
73453;BME280;61687;56.232;43.854;2023-12-28T04:45:53;99655.22;;;-4.18;75.81
73453;BME280;61687;56.232;43.854;2023-12-28T04:48:19;99652.72;;;-4.09;75.68
73453;BME280;61687;56.232;43.854;2023-12-28T04:50:47;99654.03;;;-4.07;75.26
73453;BME280;61687;56.232;43.854;2023-12-28T04:53:14;99651.88;;;-4.29;75.83
73453;BME280;61687;56.232;43.854;2023-12-28T04:55:41;99661.47;;;-4.23;75.99
73453;BME280;61687;56.232;43.854;2023-12-28T04:58:07;99657.31;;;-4.10;75.90
73453;BME280;61687;56.232;43.854;2023-12-28T05:00:33;99670.09;;;-4.07;75.01
73453;BME280;61687;56.232;43.854;2023-12-28T05:03:00;99676.03;;;-4.10;75.18
73453;BME280;61687;56.232;43.854;2023-12-28T05:05:25;99683.47;;;-4.07;75.05
73453;BME280;61687;56.232;43.854;2023-12-28T05:07:51;99678.41;;;-4.08;74.98
73453;BME280;61687;56.232;43.854;2023-12-28T05:10:17;99680.91;;;-3.93;74.38
73453;BME280;61687;56.232;43.854;2023-12-28T05:12:44;99679.06;;;-3.92;74.30
73453;BME280;61687;56.232;43.854;2023-12-28T05:15:10;99686.81;;;-4.20;75.09
73453;BME280;61687;56.232;43.854;2023-12-28T05:17:36;99689.81;;;-4.22;75.32
73453;BME280;61687;56.232;43.854;2023-12-28T05:20:03;99692.19;;;-4.20;75.47
73453;BME280;61687;56.232;43.854;2023-12-28T05:22:30;99688.34;;;-4.14;74.92
73453;BME280;61687;56.232;43.854;2023-12-28T05:24:57;99684.31;;;-4.11;75.05
73453;BME280;61687;56.232;43.854;2023-12-28T05:27:23;99690.44;;;-4.06;74.74
73453;BME280;61687;56.232;43.854;2023-12-28T05:29:49;99695.72;;;-4.00;74.79
73453;BME280;61687;56.232;43.854;2023-12-28T05:32:15;99694.13;;;-4.02;74.70
73453;BME280;61687;56.232;43.854;2023-12-28T05:34:41;99699.59;;;-4.12;74.93
73453;BME280;61687;56.232;43.854;2023-12-28T05:37:07;99693.94;;;-4.10;74.98
73453;BME280;61687;56.232;43.854;2023-12-28T05:39:33;99703.25;;;-4.03;74.60
73453;BME280;61687;56.232;43.854;2023-12-28T05:41:59;99704.59;;;-4.05;74.68
73453;BME280;61687;56.232;43.854;2023-12-28T05:44:25;99704.47;;;-4.19;75.00
73453;BME280;61687;56.232;43.854;2023-12-28T05:46:51;99701.91;;;-4.29;74.85
73453;BME280;61687;56.232;43.854;2023-12-28T05:49:18;99712.00;;;-4.21;75.17
73453;BME280;61687;56.232;43.854;2023-12-28T05:51:44;99716.25;;;-4.20;74.72
73453;BME280;61687;56.232;43.854;2023-12-28T05:54:10;99724.00;;;-4.19;74.76
73453;BME280;61687;56.232;43.854;2023-12-28T05:56:36;99715.47;;;-4.21;74.71
73453;BME280;61687;56.232;43.854;2023-12-28T05:59:02;99708.63;;;-4.32;75.23
73453;BME280;61687;56.232;43.854;2023-12-28T06:01:28;99722.69;;;-4.21;74.95
73453;BME280;61687;56.232;43.854;2023-12-28T06:03:54;99712.75;;;-4.15;74.88
73453;BME280;61687;56.232;43.854;2023-12-28T06:06:20;99720.84;;;-4.26;74.77
73453;BME280;61687;56.232;43.854;2023-12-28T06:08:46;99727.72;;;-4.14;74.81
73453;BME280;61687;56.232;43.854;2023-12-28T06:11:12;99728.41;;;-4.04;74.81
73453;BME280;61687;56.232;43.854;2023-12-28T06:13:38;99727.47;;;-4.18;74.72
73453;BME280;61687;56.232;43.854;2023-12-28T06:16:04;99728.97;;;-4.07;74.46
73453;BME280;61687;56.232;43.854;2023-12-28T06:18:30;99740.25;;;-4.10;74.54
73453;BME280;61687;56.232;43.854;2023-12-28T06:20:56;99731.09;;;-4.04;74.23
73453;BME280;61687;56.232;43.854;2023-12-28T06:23:22;99742.25;;;-3.96;73.88
73453;BME280;61687;56.232;43.854;2023-12-28T06:25:48;99737.00;;;-4.07;73.66
73453;BME280;61687;56.232;43.854;2023-12-28T06:28:14;99737.28;;;-4.08;73.97
73453;BME280;61687;56.232;43.854;2023-12-28T06:30:40;99740.94;;;-3.99;73.70
73453;BME280;61687;56.232;43.854;2023-12-28T06:33:06;99739.28;;;-3.95;73.33
73453;BME280;61687;56.232;43.854;2023-12-28T06:35:32;99736.22;;;-3.83;73.03
73453;BME280;61687;56.232;43.854;2023-12-28T06:37:58;99750.31;;;-4.02;73.32
73453;BME280;61687;56.232;43.854;2023-12-28T06:40:24;99751.41;;;-4.03;73.32
73453;BME280;61687;56.232;43.854;2023-12-28T06:42:50;99758.03;;;-3.95;73.04
73453;BME280;61687;56.232;43.854;2023-12-28T06:45:16;99764.22;;;-3.99;72.96
73453;BME280;61687;56.232;43.854;2023-12-28T06:47:42;99769.97;;;-4.11;72.85
73453;BME280;61687;56.232;43.854;2023-12-28T06:50:08;99764.56;;;-4.06;73.13
73453;BME280;61687;56.232;43.854;2023-12-28T06:52:34;99771.13;;;-3.93;72.58
73453;BME280;61687;56.232;43.854;2023-12-28T06:55:00;99767.75;;;-4.04;71.94
73453;BME280;61687;56.232;43.854;2023-12-28T06:57:26;99772.75;;;-3.92;72.25
73453;BME280;61687;56.232;43.854;2023-12-28T06:59:52;99779.63;;;-3.86;72.03
73453;BME280;61687;56.232;43.854;2023-12-28T07:02:18;99778.53;;;-3.85;71.88
73453;BME280;61687;56.232;43.854;2023-12-28T07:04:44;99787.09;;;-3.83;71.44
73453;BME280;61687;56.232;43.854;2023-12-28T07:07:10;99774.53;;;-3.88;71.70
73453;BME280;61687;56.232;43.854;2023-12-28T07:09:35;99777.53;;;-3.89;71.23
73453;BME280;61687;56.232;43.854;2023-12-28T07:12:03;99779.53;;;-4.05;71.59
73453;BME280;61687;56.232;43.854;2023-12-28T07:14:29;99785.59;;;-3.94;71.07
73453;BME280;61687;56.232;43.854;2023-12-28T07:16:55;99793.22;;;-3.82;71.28
73453;BME280;61687;56.232;43.854;2023-12-28T07:19:20;99795.38;;;-3.84;70.98
73453;BME280;61687;56.232;43.854;2023-12-28T07:21:46;99794.50;;;-3.75;70.77
73453;BME280;61687;56.232;43.854;2023-12-28T07:24:12;99793.81;;;-3.61;70.24
73453;BME280;61687;56.232;43.854;2023-12-28T07:26:38;99798.53;;;-3.77;70.42
73453;BME280;61687;56.232;43.854;2023-12-28T07:29:04;99800.31;;;-3.67;70.37
73453;BME280;61687;56.232;43.854;2023-12-28T07:31:30;99796.56;;;-3.66;69.84
73453;BME280;61687;56.232;43.854;2023-12-28T07:33:57;99794.50;;;-3.75;69.76
73453;BME280;61687;56.232;43.854;2023-12-28T07:36:23;99801.25;;;-3.82;69.45
73453;BME280;61687;56.232;43.854;2023-12-28T07:38:49;99802.91;;;-3.86;69.71
73453;BME280;61687;56.232;43.854;2023-12-28T07:41:15;99806.44;;;-3.91;69.76
73453;BME280;61687;56.232;43.854;2023-12-28T07:43:41;99809.84;;;-3.85;69.04
73453;BME280;61687;56.232;43.854;2023-12-28T07:46:07;99809.97;;;-3.96;68.71
73453;BME280;61687;56.232;43.854;2023-12-28T07:48:33;99807.00;;;-3.94;69.26
73453;BME280;61687;56.232;43.854;2023-12-28T07:51:04;99814.94;;;-3.84;68.78
73453;BME280;61687;56.232;43.854;2023-12-28T07:53:30;99811.13;;;-3.78;68.38
73453;BME280;61687;56.232;43.854;2023-12-28T07:55:56;99813.09;;;-3.89;68.69
73453;BME280;61687;56.232;43.854;2023-12-28T07:58:22;99811.94;;;-3.77;68.74
73453;BME280;61687;56.232;43.854;2023-12-28T08:00:48;99821.13;;;-3.89;68.20
73453;BME280;61687;56.232;43.854;2023-12-28T08:03:15;99831.28;;;-3.85;67.54
73453;BME280;61687;56.232;43.854;2023-12-28T08:05:43;99833.41;;;-4.12;67.89
73453;BME280;61687;56.232;43.854;2023-12-28T08:08:09;99833.06;;;-4.40;68.44
73453;BME280;61687;56.232;43.854;2023-12-28T08:10:35;99826.63;;;-4.34;68.90
73453;BME280;61687;56.232;43.854;2023-12-28T08:13:01;99815.34;;;-4.31;68.69
73453;BME280;61687;56.232;43.854;2023-12-28T08:15:27;99813.75;;;-4.32;69.19
73453;BME280;61687;56.232;43.854;2023-12-28T08:17:53;99815.34;;;-4.31;69.39
73453;BME280;61687;56.232;43.854;2023-12-28T08:20:19;99815.38;;;-4.36;69.86
73453;BME280;61687;56.232;43.854;2023-12-28T08:22:45;99822.25;;;-4.24;69.89
73453;BME280;61687;56.232;43.854;2023-12-28T08:25:11;99822.75;;;-4.22;70.09
73453;BME280;61687;56.232;43.854;2023-12-28T08:27:37;99822.59;;;-4.02;69.76
73453;BME280;61687;56.232;43.854;2023-12-28T08:30:04;99821.97;;;-4.23;70.15
73453;BME280;61687;56.232;43.854;2023-12-28T08:32:31;99826.53;;;-4.23;70.27
73453;BME280;61687;56.232;43.854;2023-12-28T08:34:57;99828.94;;;-4.22;70.42
73453;BME280;61687;56.232;43.854;2023-12-28T08:37:23;99819.13;;;-4.02;70.27
73453;BME280;61687;56.232;43.854;2023-12-28T08:39:49;99829.22;;;-3.94;69.65
73453;BME280;61687;56.232;43.854;2023-12-28T08:42:15;99833.63;;;-4.08;69.90
73453;BME280;61687;56.232;43.854;2023-12-28T08:44:41;99826.59;;;-3.99;69.97
73453;BME280;61687;56.232;43.854;2023-12-28T08:47:06;99828.84;;;-4.11;70.13
73453;BME280;61687;56.232;43.854;2023-12-28T08:49:33;99839.19;;;-4.34;70.88
73453;BME280;61687;56.232;43.854;2023-12-28T08:51:59;99838.34;;;-4.29;70.90
73453;BME280;61687;56.232;43.854;2023-12-28T08:54:25;99842.00;;;-4.20;70.67
73453;BME280;61687;56.232;43.854;2023-12-28T08:56:51;99843.56;;;-4.14;70.30
73453;BME280;61687;56.232;43.854;2023-12-28T08:59:17;99844.31;;;-4.03;69.97
73453;BME280;61687;56.232;43.854;2023-12-28T09:01:43;99839.22;;;-4.05;69.61
73453;BME280;61687;56.232;43.854;2023-12-28T09:04:09;99848.97;;;-4.19;68.15
73453;BME280;61687;56.232;43.854;2023-12-28T09:06:35;99847.50;;;-4.41;68.90
73453;BME280;61687;56.232;43.854;2023-12-28T09:09:01;99843.75;;;-4.40;69.05
73453;BME280;61687;56.232;43.854;2023-12-28T09:11:27;99857.16;;;-4.45;68.93
73453;BME280;61687;56.232;43.854;2023-12-28T09:13:54;99845.34;;;-4.39;68.53
73453;BME280;61687;56.232;43.854;2023-12-28T09:16:20;99861.25;;;-4.18;67.82
73453;BME280;61687;56.232;43.854;2023-12-28T09:18:46;99867.13;;;-4.56;67.58
73453;BME280;61687;56.232;43.854;2023-12-28T09:21:12;99866.31;;;-4.56;67.58
73453;BME280;61687;56.232;43.854;2023-12-28T09:23:38;99858.34;;;-4.62;67.67
73453;BME280;61687;56.232;43.854;2023-12-28T09:26:06;99854.13;;;-4.73;67.92
73453;BME280;61687;56.232;43.854;2023-12-28T09:28:33;99853.47;;;-4.49;67.51
73453;BME280;61687;56.232;43.854;2023-12-28T09:31:00;99854.22;;;-4.43;67.26
73453;BME280;61687;56.232;43.854;2023-12-28T09:33:26;99852.63;;;-4.44;67.16
73453;BME280;61687;56.232;43.854;2023-12-28T09:35:52;99859.63;;;-4.54;67.44
73453;BME280;61687;56.232;43.854;2023-12-28T09:38:19;99870.50;;;-4.40;67.18
73453;BME280;61687;56.232;43.854;2023-12-28T09:40:45;99859.94;;;-4.55;67.29
73453;BME280;61687;56.232;43.854;2023-12-28T09:43:33;99866.88;;;-4.54;67.42
73453;BME280;61687;56.232;43.854;2023-12-28T09:46:07;99866.84;;;-4.49;67.42
73453;BME280;61687;56.232;43.854;2023-12-28T09:48:37;99872.56;;;-4.71;67.84
73453;BME280;61687;56.232;43.854;2023-12-28T09:51:06;99868.81;;;-4.70;68.30
73453;BME280;61687;56.232;43.854;2023-12-28T09:53:32;99869.47;;;-4.44;67.28
73453;BME280;61687;56.232;43.854;2023-12-28T09:55:59;99881.50;;;-4.47;67.43
73453;BME280;61687;56.232;43.854;2023-12-28T09:58:25;99877.53;;;-4.49;67.50
73453;BME280;61687;56.232;43.854;2023-12-28T10:00:51;99878.94;;;-4.62;67.29
73453;BME280;61687;56.232;43.854;2023-12-28T10:03:17;99874.97;;;-4.70;67.72
73453;BME280;61687;56.232;43.854;2023-12-28T10:05:44;99887.75;;;-4.62;67.48
73453;BME280;61687;56.232;43.854;2023-12-28T10:08:12;99886.63;;;-4.50;67.23
73453;BME280;61687;56.232;43.854;2023-12-28T10:10:43;99888.59;;;-4.71;67.75
73453;BME280;61687;56.232;43.854;2023-12-28T10:13:10;99880.53;;;-4.61;67.57
73453;BME280;61687;56.232;43.854;2023-12-28T10:15:36;99888.78;;;-4.52;67.22
73453;BME280;61687;56.232;43.854;2023-12-28T10:18:06;99880.75;;;-4.52;67.73
73453;BME280;61687;56.232;43.854;2023-12-28T10:20:32;99887.63;;;-4.41;67.37
73453;BME280;61687;56.232;43.854;2023-12-28T10:22:59;99869.38;;;-4.28;67.03
73453;BME280;61687;56.232;43.854;2023-12-28T10:25:25;99877.09;;;-4.22;66.92
73453;BME280;61687;56.232;43.854;2023-12-28T10:27:52;99865.31;;;-4.26;66.95
73453;BME280;61687;56.232;43.854;2023-12-28T10:30:22;99868.69;;;-4.10;66.50
73453;BME280;61687;56.232;43.854;2023-12-28T10:32:48;99878.75;;;-3.96;66.29
73453;BME280;61687;56.232;43.854;2023-12-28T10:35:14;99871.66;;;-4.11;66.35
73453;BME280;61687;56.232;43.854;2023-12-28T10:37:41;99872.38;;;-4.00;66.37
73453;BME280;61687;56.232;43.854;2023-12-28T10:40:12;99865.56;;;-3.88;66.00
73453;BME280;61687;56.232;43.854;2023-12-28T10:42:58;99868.53;;;-3.89;65.98
73453;BME280;61687;56.232;43.854;2023-12-28T10:45:29;99861.03;;;-3.87;66.20
73453;BME280;61687;56.232;43.854;2023-12-28T10:50:38;99867.78;;;-3.95;66.26
73453;BME280;61687;56.232;43.854;2023-12-28T11:01:37;99868.34;;;-3.98;65.86
73453;BME280;61687;56.232;43.854;2023-12-28T11:07:07;99877.25;;;-4.08;65.38
73453;BME280;61687;56.232;43.854;2023-12-28T11:09:35;99868.69;;;-4.10;65.82
73453;BME280;61687;56.232;43.854;2023-12-28T11:12:04;99874.94;;;-4.25;65.68
73453;BME280;61687;56.232;43.854;2023-12-28T11:14:34;99865.72;;;-4.03;65.43
73453;BME280;61687;56.232;43.854;2023-12-28T11:17:00;99863.34;;;-4.10;65.44
73453;BME280;61687;56.232;43.854;2023-12-28T11:19:28;99872.59;;;-4.32;65.56
73453;BME280;61687;56.232;43.854;2023-12-28T11:21:55;99883.78;;;-4.24;65.54
73453;BME280;61687;56.232;43.854;2023-12-28T11:24:23;99885.25;;;-4.42;65.47
73453;BME280;61687;56.232;43.854;2023-12-28T11:26:53;99885.44;;;-4.28;65.12
73453;BME280;61687;56.232;43.854;2023-12-28T11:29:20;99887.44;;;-4.15;64.88
73453;BME280;61687;56.232;43.854;2023-12-28T11:31:57;99899.91;;;-4.35;65.62
73453;BME280;61687;56.232;43.854;2023-12-28T11:34:31;99888.88;;;-4.28;65.79
73453;BME280;61687;56.232;43.854;2023-12-28T11:37:17;99895.59;;;-4.31;65.68
73453;BME280;61687;56.232;43.854;2023-12-28T11:39:48;99897.16;;;-4.24;65.81
73453;BME280;61687;56.232;43.854;2023-12-28T11:42:20;99904.16;;;-4.28;65.95
73453;BME280;61687;56.232;43.854;2023-12-28T11:44:46;99903.03;;;-4.22;65.89
73453;BME280;61687;56.232;43.854;2023-12-28T11:47:14;99898.50;;;-4.22;66.08
73453;BME280;61687;56.232;43.854;2023-12-28T11:49:41;99915.81;;;-4.14;66.00
73453;BME280;61687;56.232;43.854;2023-12-28T11:52:08;99911.53;;;-4.10;65.88
73453;BME280;61687;56.232;43.854;2023-12-28T11:54:34;99913.69;;;-4.12;65.54
73453;BME280;61687;56.232;43.854;2023-12-28T11:57:00;99911.56;;;-4.20;65.62
73453;BME280;61687;56.232;43.854;2023-12-28T11:59:27;99907.38;;;-4.32;65.82
73453;BME280;61687;56.232;43.854;2023-12-28T12:01:53;99914.28;;;-4.25;65.98
73453;BME280;61687;56.232;43.854;2023-12-28T12:04:20;99904.88;;;-4.63;67.13
73453;BME280;61687;56.232;43.854;2023-12-28T12:06:48;99916.88;;;-4.55;67.14
73453;BME280;61687;56.232;43.854;2023-12-28T12:09:14;99916.94;;;-4.65;67.55
73453;BME280;61687;56.232;43.854;2023-12-28T12:11:40;99916.69;;;-4.69;67.71
73453;BME280;61687;56.232;43.854;2023-12-28T12:14:10;99939.97;;;-4.80;68.09
73453;BME280;61687;56.232;43.854;2023-12-28T12:16:37;99937.84;;;-4.83;67.75
73453;BME280;61687;56.232;43.854;2023-12-28T12:19:04;99951.22;;;-4.83;68.01
73453;BME280;61687;56.232;43.854;2023-12-28T12:21:30;99952.09;;;-5.13;68.59
73453;BME280;61687;56.232;43.854;2023-12-28T12:23:56;99951.81;;;-5.01;68.27
73453;BME280;61687;56.232;43.854;2023-12-28T12:26:22;99957.16;;;-5.01;68.40
73453;BME280;61687;56.232;43.854;2023-12-28T12:28:49;99951.25;;;-4.88;68.34
73453;BME280;61687;56.232;43.854;2023-12-28T12:31:15;99955.78;;;-4.89;68.07
73453;BME280;61687;56.232;43.854;2023-12-28T12:33:42;99960.56;;;-4.85;68.36
73453;BME280;61687;56.232;43.854;2023-12-28T12:36:08;99958.97;;;-4.86;68.42
73453;BME280;61687;56.232;43.854;2023-12-28T12:38:34;99958.44;;;-4.83;68.57
73453;BME280;61687;56.232;43.854;2023-12-28T12:41:00;99961.69;;;-4.97;68.49
73453;BME280;61687;56.232;43.854;2023-12-28T12:43:26;99961.94;;;-4.98;68.85
73453;BME280;61687;56.232;43.854;2023-12-28T12:45:53;99961.13;;;-4.99;68.81
73453;BME280;61687;56.232;43.854;2023-12-28T12:48:19;99961.75;;;-5.33;69.65
73453;BME280;61687;56.232;43.854;2023-12-28T12:50:45;99962.28;;;-5.26;70.03
73453;BME280;61687;56.232;43.854;2023-12-28T12:53:11;99992.75;;;-5.58;70.09
73453;BME280;61687;56.232;43.854;2023-12-28T12:55:37;99973.25;;;-5.43;69.77
73453;BME280;61687;56.232;43.854;2023-12-28T12:58:10;99986.63;;;-5.48;70.10
73453;BME280;61687;56.232;43.854;2023-12-28T13:00:41;99994.09;;;-5.45;70.20
73453;BME280;61687;56.232;43.854;2023-12-28T13:03:10;99992.19;;;-5.44;70.21